Terminal Aerodrome Forecast
Issued by NWS

Home | Current Version | Previous Version | Text Only | Print | Product List | Glossary On
Versions: 1 2 3 4 5 6 7 8 9 10 11 12 13 14 15 16 17 18 19 20 21 22 23 24 25 26 27 28
000
FTUS44 KHGX 072058 AAB
TAFCXO
TAF AMD
KCXO 072058Z 0721/0818 13006KT P6SM BKN018 OVC030
     FM080300 36003KT P6SM VCSH BKN015
     FM080800 36011KT P6SM -RA BKN012
     FM081400 36012G19KT P6SM OVC015=

USA.gov is the U.S. government's official web portal to all federal, state and local government web resources and services.